Hermann Hesse — A8KW5 — position and weather

sailwx.info

Track history (hours):
 
Tides and Currents Weather Stations Pressure Air Temp Water Temp Dewpoint Dewpoint Depression Visibility Wind Speed Wind Dir Waves Ship Positions

Hermann Hesse

Last reported at 2017-Nov-16 13:14 UTC. Time now 2017-Nov-19 08:34 UTC.
Position N 40°28' W 073°50'.

Length 177 m; draft 9.8 m.

Type: Cargo ship. MMSI: 636091222.

Date/timePositionNaut miles runAvg speedWind from/ knotsBaromVisibWave heightAir tempDewpointWater temp
2017-Nov-16 13:14N 40°28' W 073°50'2 8.8
2017-Nov-16 13:00N 40°28' W 073°53'611.3
2017-Nov-16 12:30N 40°31' W 073°59'611.6
2017-Nov-16 12:00N 40°36' W 074°03'4 7.2
2017-Nov-16 11:30N 40°40' W 074°03'2 4.5
2017-Nov-16 11:00N 40°41' W 074°01'0 0.3
2017-Nov-16 10:28N 40°41' W 074°01'0 0.0
2017-Nov-16 09:58N 40°41' W 074°01'0 0.0
2017-Nov-16 09:28N 40°41' W 074°01'0 0.0
2017-Nov-16 08:58N 40°41' W 074°01'0 0.0
2017-Nov-16 08:28N 40°41' W 074°01'0 0.0
2017-Nov-16 07:58N 40°41' W 074°01'0 0.0
2017-Nov-16 07:28N 40°41' W 074°01'0 0.0
2017-Nov-16 06:58N 40°41' W 074°01'0 0.0
2017-Nov-16 06:28N 40°41' W 074°01'0 0.0
2017-Nov-16 05:58N 40°41' W 074°01'0 0.0
2017-Nov-16 05:28N 40°41' W 074°01'0 0.0
2017-Nov-16 04:58N 40°41' W 074°01'0 0.0
2017-Nov-16 04:28N 40°41' W 074°01'0 0.0
2017-Nov-16 03:58N 40°41' W 074°01'0 0.0
2017-Nov-16 03:28N 40°41' W 074°01'0 0.0
2017-Nov-16 02:58N 40°41' W 074°01'0 0.0
2017-Nov-16 02:28N 40°41' W 074°01'0 0.0
2017-Nov-16 01:58N 40°41' W 074°01'0 0.0
2017-Nov-16 01:28N 40°41' W 074°01'0 0.0
2017-Nov-16 00:58N 40°41' W 074°01'0 0.0
2017-Nov-16 00:28N 40°41' W 074°01'0 0.0
2017-Nov-15 23:58N 40°41' W 074°01'0 0.0
2017-Nov-15 23:28N 40°41' W 074°01'0 0.0
2017-Nov-15 22:58N 40°41' W 074°01'0 0.0
2017-Nov-15 22:28N 40°41' W 074°01'0 0.0
2017-Nov-15 21:55N 40°41' W 074°01'0 0.0
2017-Nov-15 21:28N 40°41' W 074°01'0 0.0
2017-Nov-15 20:55N 40°41' W 074°01'0 0.0
2017-Nov-15 20:28N 40°41' W 074°01'0 0.0
2017-Nov-15 19:58N 40°41' W 074°01'0 0.0
2017-Nov-15 19:28N 40°41' W 074°01'0 0.0
2017-Nov-15 18:28N 40°41' W 074°01'0 0.0
2017-Nov-15 17:58N 40°41' W 074°01'0 0.0
2017-Nov-15 17:28N 40°41' W 074°01'0 0.0
2017-Nov-15 16:58N 40°41' W 074°01'0 0.0
2017-Nov-15 16:28N 40°41' W 074°01'0 0.0
2017-Nov-15 15:58N 40°41' W 074°01'0 0.0
2017-Nov-15 15:25N 40°41' W 074°01'0 0.0
2017-Nov-15 14:58N 40°41' W 074°01'0 0.0
2017-Nov-15 14:28N 40°41' W 074°01'0 0.0
2017-Nov-15 13:58N 40°41' W 074°01'0 0.0
2017-Nov-15 13:28N 40°41' W 074°01'0 0.0
2017-Nov-15 12:58N 40°41' W 074°01'0 0.0
2017-Nov-15 12:28N 40°41' W 074°01'0 0.0
2017-Nov-15 11:58N 40°41' W 074°01'0 0.0
2017-Nov-15 11:28N 40°41' W 074°01'0 0.0
2017-Nov-15 10:58N 40°41' W 074°01'0 0.0
2017-Nov-15 10:28N 40°41' W 074°01'0 0.0
2017-Nov-15 09:58N 40°41' W 074°01'0 0.0
2017-Nov-15 09:28N 40°41' W 074°01'0 0.0
2017-Nov-15 08:58N 40°41' W 074°01'0 0.0
2017-Nov-15 08:28N 40°41' W 074°01'0 0.0
2017-Nov-15 07:58N 40°41' W 074°01'0 0.0
2017-Nov-15 07:28N 40°41' W 074°01'0 0.0
2017-Nov-15 06:58N 40°41' W 074°01'0 0.0
2017-Nov-15 06:28N 40°41' W 074°01'0 0.0
2017-Nov-15 05:58N 40°41' W 074°01'0 0.0
2017-Nov-15 05:28N 40°41' W 074°01'0 0.0
2017-Nov-15 04:58N 40°41' W 074°01'0 0.0
2017-Nov-15 04:28N 40°41' W 074°01'0 0.0
2017-Nov-15 03:58N 40°41' W 074°01'0 0.0
2017-Nov-15 03:30N 40°41' W 074°01'2 3.9
2017-Nov-15 03:00N 40°40' W 074°03'4 7.6
2017-Nov-15 02:30N 40°36' W 074°03'612.2
2017-Nov-15 02:00N 40°31' W 073°59'510.9
2017-Nov-15 01:30N 40°28' W 073°52'5 8.7
2017-Nov-15 00:57N 40°25' W 073°48'5 9.9
2017-Nov-15 00:30N 40°21' W 073°46'10911.7
2017-Nov-14 15:11N 38°50' W 075°05'316.6
2017-Nov-14 15:00N 38°53' W 075°05'918.5
2017-Nov-14 14:30N 39°02' W 075°09'917.7
2017-Nov-14 14:00N 39°09' W 075°15'817.0
2017-Nov-14 13:30N 39°16' W 075°21'816.2
2017-Nov-14 13:00N 39°23' W 075°28'714.5
2017-Nov-14 12:30N 39°28' W 075°34'612.3
2017-Nov-14 12:01N 39°34' W 075°33'510.6
2017-Nov-14 11:30N 39°40' W 075°32'5 9.9
2017-Nov-14 11:01N 39°44' W 075°30'5 9.5
2017-Nov-14 10:30N 39°48' W 075°26'4 7.5
2017-Nov-14 10:00N 39°50' W 075°22'2 3.0
2017-Nov-14 09:31N 39°51' W 075°20'0 0.0
2017-Nov-14 09:01N 39°51' W 075°20'0 0.0
2017-Nov-14 08:31N 39°51' W 075°20'0 0.0
2017-Nov-14 08:01N 39°51' W 075°20'0 0.0
2017-Nov-14 07:31N 39°51' W 075°20'0 0.0
2017-Nov-14 07:01N 39°51' W 075°20'0 0.0
2017-Nov-14 06:28N 39°51' W 075°20'0 0.0
2017-Nov-14 06:01N 39°51' W 075°20'0 0.0
2017-Nov-14 05:31N 39°51' W 075°20'0 0.0
2017-Nov-14 05:01N 39°51' W 075°20'0 0.0
2017-Nov-14 04:31N 39°51' W 075°20'0 0.0
2017-Nov-14 04:01N 39°51' W 075°20'0 0.0
2017-Nov-14 03:28N 39°51' W 075°20'0 0.0
2017-Nov-14 03:01N 39°51' W 075°20'0 0.0
2017-Nov-14 02:19N 39°51' W 075°20'0 0.0
2017-Nov-14 02:01N 39°51' W 075°20'0 0.0
2017-Nov-14 01:31N 39°51' W 075°20'0 0.0
2017-Nov-14 01:01N 39°51' W 075°20'0 0.0
2017-Nov-14 00:31N 39°51' W 075°20'0 0.0
2017-Nov-14 00:01N 39°51' W 075°20'0 0.0
2017-Nov-13 23:31N 39°51' W 075°20'0 0.0
2017-Nov-13 22:58N 39°51' W 075°20'0 0.0
2017-Nov-13 22:28N 39°51' W 075°20'0 0.0
2017-Nov-13 22:01N 39°51' W 075°20'  
Track history (hours):
 
Tides and Currents Weather Stations Pressure Air Temp Water Temp Dewpoint Dewpoint Depression Visibility Wind Speed Wind Dir Waves Ship Positions

Hermann Hesse

Last reported at 2017-Nov-16 13:14 UTC. Time now 2017-Nov-19 08:34 UTC.
Position N 40°28' W 073°50'.

Length 177 m; draft 9.8 m.

Type: Cargo ship. MMSI: 636091222.

Date/timePositionNaut miles runAvg speedWind from/ knotsBaromVisibWave heightAir tempDewpointWater temp
2017-Nov-16 13:14N 40°28' W 073°50'2 8.8
2017-Nov-16 13:00N 40°28' W 073°53'611.3
2017-Nov-16 12:30N 40°31' W 073°59'611.6
2017-Nov-16 12:00N 40°36' W 074°03'4 7.2
2017-Nov-16 11:30N 40°40' W 074°03'2 4.5
2017-Nov-16 11:00N 40°41' W 074°01'0 0.3
2017-Nov-16 10:28N 40°41' W 074°01'0 0.0
2017-Nov-16 09:58N 40°41' W 074°01'0 0.0
2017-Nov-16 09:28N 40°41' W 074°01'0 0.0
2017-Nov-16 08:58N 40°41' W 074°01'0 0.0
2017-Nov-16 08:28N 40°41' W 074°01'0 0.0
2017-Nov-16 07:58N 40°41' W 074°01'0 0.0
2017-Nov-16 07:28N 40°41' W 074°01'0 0.0
2017-Nov-16 06:58N 40°41' W 074°01'0 0.0
2017-Nov-16 06:28N 40°41' W 074°01'0 0.0
2017-Nov-16 05:58N 40°41' W 074°01'0 0.0
2017-Nov-16 05:28N 40°41' W 074°01'0 0.0
2017-Nov-16 04:58N 40°41' W 074°01'0 0.0
2017-Nov-16 04:28N 40°41' W 074°01'0 0.0
2017-Nov-16 03:58N 40°41' W 074°01'0 0.0
2017-Nov-16 03:28N 40°41' W 074°01'0 0.0
2017-Nov-16 02:58N 40°41' W 074°01'0 0.0
2017-Nov-16 02:28N 40°41' W 074°01'0 0.0
2017-Nov-16 01:58N 40°41' W 074°01'0 0.0
2017-Nov-16 01:28N 40°41' W 074°01'0 0.0
2017-Nov-16 00:58N 40°41' W 074°01'0 0.0
2017-Nov-16 00:28N 40°41' W 074°01'0 0.0
2017-Nov-15 23:58N 40°41' W 074°01'0 0.0
2017-Nov-15 23:28N 40°41' W 074°01'0 0.0
2017-Nov-15 22:58N 40°41' W 074°01'0 0.0
2017-Nov-15 22:28N 40°41' W 074°01'0 0.0
2017-Nov-15 21:55N 40°41' W 074°01'0 0.0
2017-Nov-15 21:28N 40°41' W 074°01'0 0.0
2017-Nov-15 20:55N 40°41' W 074°01'0 0.0
2017-Nov-15 20:28N 40°41' W 074°01'0 0.0
2017-Nov-15 19:58N 40°41' W 074°01'0 0.0
2017-Nov-15 19:28N 40°41' W 074°01'0 0.0
2017-Nov-15 18:28N 40°41' W 074°01'0 0.0
2017-Nov-15 17:58N 40°41' W 074°01'0 0.0
2017-Nov-15 17:28N 40°41' W 074°01'0 0.0
2017-Nov-15 16:58N 40°41' W 074°01'0 0.0
2017-Nov-15 16:28N 40°41' W 074°01'0 0.0
2017-Nov-15 15:58N 40°41' W 074°01'0 0.0
2017-Nov-15 15:25N 40°41' W 074°01'0 0.0
2017-Nov-15 14:58N 40°41' W 074°01'0 0.0
2017-Nov-15 14:28N 40°41' W 074°01'0 0.0
2017-Nov-15 13:58N 40°41' W 074°01'0 0.0
2017-Nov-15 13:28N 40°41' W 074°01'0 0.0
2017-Nov-15 12:58N 40°41' W 074°01'0 0.0
2017-Nov-15 12:28N 40°41' W 074°01'0 0.0
2017-Nov-15 11:58N 40°41' W 074°01'0 0.0
2017-Nov-15 11:28N 40°41' W 074°01'0 0.0
2017-Nov-15 10:58N 40°41' W 074°01'0 0.0
2017-Nov-15 10:28N 40°41' W 074°01'0 0.0
2017-Nov-15 09:58N 40°41' W 074°01'0 0.0
2017-Nov-15 09:28N 40°41' W 074°01'0 0.0
2017-Nov-15 08:58N 40°41' W 074°01'0 0.0
2017-Nov-15 08:28N 40°41' W 074°01'0 0.0
2017-Nov-15 07:58N 40°41' W 074°01'0 0.0
2017-Nov-15 07:28N 40°41' W 074°01'0 0.0
2017-Nov-15 06:58N 40°41' W 074°01'0 0.0
2017-Nov-15 06:28N 40°41' W 074°01'0 0.0
2017-Nov-15 05:58N 40°41' W 074°01'0 0.0
2017-Nov-15 05:28N 40°41' W 074°01'0 0.0
2017-Nov-15 04:58N 40°41' W 074°01'0 0.0
2017-Nov-15 04:28N 40°41' W 074°01'0 0.0
2017-Nov-15 03:58N 40°41' W 074°01'0 0.0
2017-Nov-15 03:30N 40°41' W 074°01'2 3.9
2017-Nov-15 03:00N 40°40' W 074°03'4 7.6
2017-Nov-15 02:30N 40°36' W 074°03'612.2
2017-Nov-15 02:00N 40°31' W 073°59'510.9
2017-Nov-15 01:30N 40°28' W 073°52'5 8.7
2017-Nov-15 00:57N 40°25' W 073°48'5 9.9
2017-Nov-15 00:30N 40°21' W 073°46'10911.7
2017-Nov-14 15:11N 38°50' W 075°05'316.6
2017-Nov-14 15:00N 38°53' W 075°05'918.5
2017-Nov-14 14:30N 39°02' W 075°09'917.7
2017-Nov-14 14:00N 39°09' W 075°15'817.0
2017-Nov-14 13:30N 39°16' W 075°21'816.2
2017-Nov-14 13:00N 39°23' W 075°28'714.5
2017-Nov-14 12:30N 39°28' W 075°34'612.3
2017-Nov-14 12:01N 39°34' W 075°33'510.6
2017-Nov-14 11:30N 39°40' W 075°32'5 9.9
2017-Nov-14 11:01N 39°44' W 075°30'5 9.5
2017-Nov-14 10:30N 39°48' W 075°26'4 7.5
2017-Nov-14 10:00N 39°50' W 075°22'2 3.0
2017-Nov-14 09:31N 39°51' W 075°20'0 0.0
2017-Nov-14 09:01N 39°51' W 075°20'0 0.0
2017-Nov-14 08:31N 39°51' W 075°20'0 0.0
2017-Nov-14 08:01N 39°51' W 075°20'0 0.0
2017-Nov-14 07:31N 39°51' W 075°20'0 0.0
2017-Nov-14 07:01N 39°51' W 075°20'0 0.0
2017-Nov-14 06:28N 39°51' W 075°20'0 0.0
2017-Nov-14 06:01N 39°51' W 075°20'0 0.0
2017-Nov-14 05:31N 39°51' W 075°20'0 0.0
2017-Nov-14 05:01N 39°51' W 075°20'0 0.0
2017-Nov-14 04:31N 39°51' W 075°20'0 0.0
2017-Nov-14 04:01N 39°51' W 075°20'0 0.0
2017-Nov-14 03:28N 39°51' W 075°20'0 0.0
2017-Nov-14 03:01N 39°51' W 075°20'0 0.0
2017-Nov-14 02:19N 39°51' W 075°20'0 0.0
2017-Nov-14 02:01N 39°51' W 075°20'0 0.0
2017-Nov-14 01:31N 39°51' W 075°20'0 0.0
2017-Nov-14 01:01N 39°51' W 075°20'0 0.0
2017-Nov-14 00:31N 39°51' W 075°20'0 0.0
2017-Nov-14 00:01N 39°51' W 075°20'0 0.0
2017-Nov-13 23:31N 39°51' W 075°20'0 0.0
2017-Nov-13 22:58N 39°51' W 075°20'0 0.0
2017-Nov-13 22:28N 39°51' W 075°20'0 0.0
2017-Nov-13 22:01N 39°51' W 075°20'  

Dump ship's entire track history